Time;durP1;ratioP1;P1;durP2;ratioP2;P2;SDS_P1;SDS_P2;PMS_P1;PMS_P2;Temp;Humidity;BMP_temperature;BMP_pressure;BME280_temperature;BME280_humidity;BME280_pressure;Samples;Min_cycle;Max_cycle;Signal;HPM_P1;HPM_P2
2021/07/26 00:01:51;;;;;;;9.32;6.68;;;;;;;;;;5005779;28;20065;-81
2021/07/26 00:04:18;;;;;;;11.60;6.78;;;;;;;;;;5005825;28;20084;-82
2021/07/26 00:06:45;;;;;;;8.80;6.32;;;;;;;;;;5010317;28;20022;-83
2021/07/26 00:09:11;;;;;;;11.63;7.05;;;;;;;;;;5006086;28;20034;-80
2021/07/26 00:11:37;;;;;;;19.80;7.30;;;;;;;;;;5007283;28;20022;-71
2021/07/26 00:14:03;;;;;;;9.98;6.43;;;;;;;;;;5010884;28;20064;-84
2021/07/26 00:16:29;;;;;;;7.85;6.22;;;;;;;;;;5012239;28;20030;-81
2021/07/26 00:18:55;;;;;;;8.95;5.85;;;;;;;;;;5004448;28;20041;-82
2021/07/26 00:21:21;;;;;;;9.35;6.18;;;;;;;;;;5009220;28;20034;-84
2021/07/26 00:23:47;;;;;;;9.32;6.70;;;;;;;;;;5009117;28;20027;-80
2021/07/26 00:26:13;;;;;;;9.60;6.47;;;;;;;;;;5008575;28;20034;-82
2021/07/26 00:28:39;;;;;;;10.90;6.50;;;;;;;;;;5006128;28;20555;-81
2021/07/26 00:31:07;;;;;;;12.10;6.10;;;;;;;;;;5006828;28;20468;-83
2021/07/26 00:34:07;;;;;;;9.18;6.28;;;;;;;;;;5004435;28;20033;-78
2021/07/26 00:36:34;;;;;;;8.85;6.07;;;;;;;;;;5006429;28;20550;-81
2021/07/26 00:39:00;;;;;;;10.38;5.95;;;;;;;;;;5004980;28;20077;-80
2021/07/26 00:41:26;;;;;;;13.32;6.20;;;;;;;;;;5008487;28;20022;-79
2021/07/26 00:43:55;;;;;;;7.75;5.95;;;;;;;;;;5007124;28;20033;-81
2021/07/26 00:46:21;;;;;;;8.07;6.28;;;;;;;;;;5000944;28;20609;-81
2021/07/26 00:48:47;;;;;;;8.05;6.10;;;;;;;;;;5010719;28;20038;-81
2021/07/26 00:51:13;;;;;;;7.57;5.82;;;;;;;;;;4998073;28;20519;-81
2021/07/26 00:53:40;;;;;;;9.52;5.93;;;;;;;;;;4998246;28;20431;-79
2021/07/26 00:56:08;;;;;;;9.18;6.05;;;;;;;;;;5010014;28;20045;-81
2021/07/26 00:58:34;;;;;;;7.55;6.03;;;;;;;;;;5004637;28;20022;-82
2021/07/26 01:01:03;;;;;;;8.35;6.13;;;;;;;;;;5004329;28;20103;-80
2021/07/26 01:03:29;;;;;;;10.43;6.07;;;;;;;;;;4999955;28;20026;-83
2021/07/26 01:05:56;;;;;;;7.60;5.95;;;;;;;;;;5012367;28;20136;-81
2021/07/26 01:08:23;;;;;;;11.40;6.07;;;;;;;;;;5005978;28;20462;-81
2021/07/26 01:10:49;;;;;;;9.15;5.90;;;;;;;;;;5004259;28;20033;-83
2021/07/26 01:13:15;;;;;;;8.60;6.25;;;;;;;;;;5010287;28;20446;-83
2021/07/26 01:15:41;;;;;;;8.55;6.38;;;;;;;;;;4998402;28;20054;-79
2021/07/26 01:18:17;;;;;;;10.45;5.82;;;;;;;;;;5006404;28;20029;-82
2021/07/26 01:20:43;;;;;;;8.90;6.35;;;;;;;;;;5007539;28;20038;-81
2021/07/26 01:23:09;;;;;;;9.30;6.13;;;;;;;;;;5001791;28;20027;-78
2021/07/26 01:25:35;;;;;;;10.80;6.80;;;;;;;;;;5005770;28;20034;-79
2021/07/26 01:28:04;;;;;;;9.85;6.80;;;;;;;;;;5008697;28;20029;-80
2021/07/26 01:30:31;;;;;;;8.10;6.15;;;;;;;;;;5007620;28;20026;-81
2021/07/26 01:32:58;;;;;;;10.65;6.20;;;;;;;;;;5002258;28;20025;-82
2021/07/26 01:35:25;;;;;;;8.73;5.95;;;;;;;;;;4990917;28;20022;-80
2021/07/26 01:37:51;;;;;;;7.40;5.75;;;;;;;;;;5001629;28;20429;-80
2021/07/26 01:40:17;;;;;;;9.07;6.55;;;;;;;;;;5009085;28;20077;-81
2021/07/26 01:42:44;;;;;;;9.70;6.65;;;;;;;;;;5006206;28;20116;-81
2021/07/26 01:45:10;;;;;;;7.50;5.82;;;;;;;;;;5008101;28;20029;-82
2021/07/26 01:47:41;;;;;;;10.85;6.38;;;;;;;;;;5005775;28;20065;-81
2021/07/26 01:50:13;;;;;;;7.75;6.03;;;;;;;;;;5005377;28;20030;-81
2021/07/26 01:52:39;;;;;;;11.93;6.35;;;;;;;;;;5003790;28;20037;-80
2021/07/26 01:55:06;;;;;;;9.25;6.20;;;;;;;;;;5009180;28;20025;-82
2021/07/26 01:57:32;;;;;;;8.23;5.82;;;;;;;;;;5006238;28;20104;-82
2021/07/26 01:59:58;;;;;;;9.85;5.72;;;;;;;;;;5005506;28;20065;-78
2021/07/26 02:02:24;;;;;;;7.88;5.97;;;;;;;;;;4997555;28;20472;-79
2021/07/26 02:04:52;;;;;;;8.68;6.22;;;;;;;;;;5001678;28;20038;-81
2021/07/26 02:07:18;;;;;;;8.35;6.00;;;;;;;;;;4998400;28;20052;-81
2021/07/26 02:09:44;;;;;;;10.02;6.00;;;;;;;;;;5007437;28;20046;-81
2021/07/26 02:12:10;;;;;;;8.20;6.50;;;;;;;;;;4999059;28;20026;-76
2021/07/26 02:14:36;;;;;;;12.43;5.90;;;;;;;;;;4997577;28;20038;-74
2021/07/26 02:17:02;;;;;;;14.90;6.63;;;;;;;;;;4998348;28;20028;-82
2021/07/26 02:19:28;;;;;;;9.90;6.28;;;;;;;;;;5005238;28;20034;-78
2021/07/26 02:21:54;;;;;;;8.88;6.13;;;;;;;;;;5004055;28;20113;-80
2021/07/26 02:24:20;;;;;;;9.38;6.50;;;;;;;;;;5005464;28;20026;-81
2021/07/26 02:26:46;;;;;;;9.30;6.20;;;;;;;;;;5010787;28;20022;-75
2021/07/26 02:29:14;;;;;;;10.35;7.30;;;;;;;;;;5002949;28;20379;-80
2021/07/26 02:31:41;;;;;;;8.35;6.55;;;;;;;;;;5001069;28;20403;-78
2021/07/26 02:34:07;;;;;;;7.70;6.45;;;;;;;;;;5002959;28;20019;-81
2021/07/26 02:36:33;;;;;;;10.68;6.32;;;;;;;;;;5001247;28;20088;-80
2021/07/26 02:38:59;;;;;;;9.00;6.47;;;;;;;;;;5004111;28;20042;-82
2021/07/26 02:41:25;;;;;;;9.43;6.72;;;;;;;;;;5005852;28;20391;-82
2021/07/26 02:43:51;;;;;;;8.98;6.50;;;;;;;;;;5005274;28;20447;-80
2021/07/26 02:46:17;;;;;;;10.52;6.93;;;;;;;;;;5008969;28;20539;-83
2021/07/26 02:48:43;;;;;;;10.27;6.75;;;;;;;;;;5009920;28;20439;-78
2021/07/26 02:51:09;;;;;;;8.32;6.55;;;;;;;;;;5010264;28;20026;-80
2021/07/26 02:53:49;;;;;;;10.85;6.30;;;;;;;;;;5012003;28;20026;-82
2021/07/26 02:56:18;;;;;;;9.77;6.85;;;;;;;;;;4998679;28;20038;-81
2021/07/26 02:58:45;;;;;;;9.20;6.50;;;;;;;;;;4993513;28;20041;-80
2021/07/26 03:01:12;;;;;;;9.73;6.63;;;;;;;;;;5003657;28;20029;-81
2021/07/26 03:03:38;;;;;;;9.45;6.32;;;;;;;;;;5010845;28;20120;-73
2021/07/26 03:06:04;;;;;;;8.90;6.60;;;;;;;;;;5014231;28;20037;-78
2021/07/26 03:08:31;;;;;;;9.48;6.85;;;;;;;;;;5006052;28;20030;-80
2021/07/26 03:11:01;;;;;;;8.88;6.57;;;;;;;;;;5005856;28;20037;-78
2021/07/26 03:13:27;;;;;;;7.65;6.68;;;;;;;;;;5013470;28;20034;-78
2021/07/26 03:15:53;;;;;;;9.35;6.68;;;;;;;;;;5013405;28;20388;-81
2021/07/26 03:18:19;;;;;;;11.80;6.80;;;;;;;;;;5013047;28;20041;-76
2021/07/26 03:20:48;;;;;;;11.25;6.68;;;;;;;;;;5012245;28;20030;-81
2021/07/26 03:23:15;;;;;;;10.15;6.85;;;;;;;;;;5010380;28;20040;-79
2021/07/26 03:25:45;;;;;;;11.50;6.80;;;;;;;;;;5010695;28;20030;-81
2021/07/26 03:28:12;;;;;;;12.07;6.53;;;;;;;;;;5011812;28;20113;-79
2021/07/26 03:30:38;;;;;;;8.98;6.60;;;;;;;;;;5007539;28;20090;-78
2021/07/26 03:33:04;;;;;;;10.20;6.50;;;;;;;;;;5006085;28;20077;-74
2021/07/26 03:35:33;;;;;;;13.85;7.20;;;;;;;;;;5014414;28;20108;-81
2021/07/26 03:38:00;;;;;;;10.82;7.15;;;;;;;;;;5013544;28;20503;-75
2021/07/26 03:40:26;;;;;;;11.23;6.97;;;;;;;;;;5010630;28;20049;-77
2021/07/26 03:42:52;;;;;;;8.45;6.65;;;;;;;;;;5010372;28;20022;-76
2021/07/26 03:45:19;;;;;;;10.05;6.80;;;;;;;;;;5011554;28;20045;-81
2021/07/26 03:47:45;;;;;;;11.48;6.80;;;;;;;;;;5004123;28;20081;-80
2021/07/26 03:50:12;;;;;;;15.02;7.15;;;;;;;;;;5006172;28;20045;-71
2021/07/26 03:52:45;;;;;;;10.73;6.65;;;;;;;;;;5012330;28;20036;-74
2021/07/26 03:55:14;;;;;;;;;;;;;;;;;;5003999;28;20037;-81
2021/07/26 03:57:43;;;;;;;8.98;7.05;;;;;;;;;;4994759;28;20371;-78
2021/07/26 04:00:11;;;;;;;8.63;6.60;;;;;;;;;;5008479;28;20038;-81
2021/07/26 04:02:57;;;;;;;10.55;6.60;;;;;;;;;;5017098;28;20018;-82
2021/07/26 04:05:31;;;;;;;12.32;6.75;;;;;;;;;;4986696;28;20033;-81
2021/07/26 04:08:02;;;;;;;10.43;6.80;;;;;;;;;;5006632;28;20030;-79
2021/07/26 04:10:28;;;;;;;14.30;7.45;;;;;;;;;;5007441;28;20030;-80
2021/07/26 04:12:56;;;;;;;17.90;7.97;;;;;;;;;;5008666;28;20030;-80
2021/07/26 04:15:22;;;;;;;9.27;7.05;;;;;;;;;;5005672;28;20037;-74
2021/07/26 04:17:52;;;;;;;9.40;7.03;;;;;;;;;;5015392;28;20080;-81
2021/07/26 04:20:18;;;;;;;12.00;7.47;;;;;;;;;;4991738;28;20531;-74
2021/07/26 04:22:44;;;;;;;12.32;7.43;;;;;;;;;;5009256;28;20026;-80
2021/07/26 04:25:10;;;;;;;11.70;7.22;;;;;;;;;;5012180;28;20558;-81
2021/07/26 04:27:37;;;;;;;13.73;7.53;;;;;;;;;;5008662;28;20033;-79
2021/07/26 04:30:06;;;;;;;12.10;7.25;;;;;;;;;;5008708;28;20498;-80
2021/07/26 04:32:42;;;;;;;8.60;7.13;;;;;;;;;;5009033;28;20022;-78
2021/07/26 04:35:10;;;;;;;9.27;6.97;;;;;;;;;;5011089;28;20037;-78
2021/07/26 04:37:37;;;;;;;10.45;7.05;;;;;;;;;;5007990;28;20041;-81
2021/07/26 04:40:04;;;;;;;13.23;7.60;;;;;;;;;;5008163;28;20072;-80
2021/07/26 04:42:30;;;;;;;10.93;7.32;;;;;;;;;;5006345;28;20022;-78
2021/07/26 04:44:56;;;;;;;11.07;7.28;;;;;;;;;;5008882;28;20057;-78
2021/07/26 04:47:22;;;;;;;10.05;7.10;;;;;;;;;;4982962;28;20435;-79
2021/07/26 04:49:48;;;;;;;12.20;7.38;;;;;;;;;;4998637;28;20546;-80
2021/07/26 04:52:14;;;;;;;10.98;7.55;;;;;;;;;;5010974;28;20531;-78
2021/07/26 04:54:40;;;;;;;8.88;6.82;;;;;;;;;;5008638;28;20084;-78
2021/07/26 04:57:06;;;;;;;11.82;7.40;;;;;;;;;;5009088;28;20033;-78
2021/07/26 04:59:32;;;;;;;13.43;7.20;;;;;;;;;;5008706;28;20048;-80
2021/07/26 05:01:58;;;;;;;10.77;7.63;;;;;;;;;;5006639;28;20092;-70
2021/07/26 05:04:24;;;;;;;12.15;8.98;;;;;;;;;;5011319;28;20076;-79
2021/07/26 05:06:50;;;;;;;12.45;7.15;;;;;;;;;;5007905;28;20030;-78
2021/07/26 05:09:16;;;;;;;14.75;7.40;;;;;;;;;;5006172;28;20022;-79
2021/07/26 05:11:43;;;;;;;9.15;7.00;;;;;;;;;;4991555;28;20084;-74
2021/07/26 05:14:10;;;;;;;10.57;7.45;;;;;;;;;;5006935;28;20057;-84
2021/07/26 05:16:36;;;;;;;12.60;7.60;;;;;;;;;;4990797;28;20423;-71
2021/07/26 05:19:03;;;;;;;11.40;7.10;;;;;;;;;;4992445;28;20128;-77
2021/07/26 05:21:29;;;;;;;12.48;7.28;;;;;;;;;;5005031;28;20026;-79
2021/07/26 05:23:55;;;;;;;16.20;7.88;;;;;;;;;;5005837;28;20033;-75
2021/07/26 05:26:21;;;;;;;10.07;8.20;;;;;;;;;;5007076;28;20026;-86
2021/07/26 05:28:47;;;;;;;13.45;7.85;;;;;;;;;;5009087;28;20041;-74
2021/07/26 05:31:13;;;;;;;16.02;8.98;;;;;;;;;;5004003;28;20037;-73
2021/07/26 05:33:41;;;;;;;11.43;8.27;;;;;;;;;;5004533;28;20018;-78
2021/07/26 05:36:07;;;;;;;12.73;7.95;;;;;;;;;;5009184;28;20518;-79
2021/07/26 05:38:33;;;;;;;13.63;8.60;;;;;;;;;;5011759;28;20088;-79
2021/07/26 05:41:00;;;;;;;14.30;8.57;;;;;;;;;;5001278;28;20042;-74
2021/07/26 05:43:26;;;;;;;24.20;8.82;;;;;;;;;;5007023;28;20459;-74
2021/07/26 05:45:52;;;;;;;19.88;8.88;;;;;;;;;;5003215;28;20034;-82
2021/07/26 05:48:20;;;;;;;10.30;8.27;;;;;;;;;;5004170;28;20081;-83
2021/07/26 05:50:46;;;;;;;13.20;8.85;;;;;;;;;;5001619;28;20041;-81
2021/07/26 05:53:12;;;;;;;14.88;8.88;;;;;;;;;;5004708;28;20542;-87
2021/07/26 05:55:39;;;;;;;14.48;8.23;;;;;;;;;;5007874;28;20034;-71
2021/07/26 05:58:05;;;;;;;18.02;8.93;;;;;;;;;;5008546;28;20629;-83
2021/07/26 06:00:57;;;;;;;13.13;9.15;;;;;;;;;;5007785;28;20038;-81
2021/07/26 06:03:23;;;;;;;14.52;8.43;;;;;;;;;;5005049;28;20030;-78
2021/07/26 06:05:49;;;;;;;10.30;8.07;;;;;;;;;;5007167;28;20034;-82
2021/07/26 06:08:15;;;;;;;11.48;8.60;;;;;;;;;;5003982;28;20018;-82
2021/07/26 06:10:41;;;;;;;17.13;8.88;;;;;;;;;;4997781;28;20027;-80
2021/07/26 06:13:07;;;;;;;12.07;8.07;;;;;;;;;;5008219;28;20057;-81
2021/07/26 06:15:33;;;;;;;9.88;7.88;;;;;;;;;;5001565;28;20018;-83
2021/07/26 06:17:59;;;;;;;11.65;8.48;;;;;;;;;;5002656;28;20029;-81
2021/07/26 06:20:25;;;;;;;11.32;8.02;;;;;;;;;;5001405;28;20033;-82
2021/07/26 06:22:53;;;;;;;18.00;8.52;;;;;;;;;;5004353;28;20046;-81
2021/07/26 06:25:19;;;;;;;12.88;8.63;;;;;;;;;;5002111;28;20357;-83
2021/07/26 06:27:46;;;;;;;13.35;8.60;;;;;;;;;;5002421;28;20388;-74
2021/07/26 06:30:12;;;;;;;12.63;8.30;;;;;;;;;;5011529;28;20033;-80
2021/07/26 06:32:38;;;;;;;10.75;8.05;;;;;;;;;;5008166;28;20214;-80
2021/07/26 06:35:07;;;;;;;11.25;8.57;;;;;;;;;;5006596;28;20515;-81
2021/07/26 06:37:34;;;;;;;15.40;9.10;;;;;;;;;;5009603;28;20531;-82
2021/07/26 06:40:00;;;;;;;9.38;8.10;;;;;;;;;;4994302;28;20521;-82
2021/07/26 06:42:26;;;;;;;13.32;8.68;;;;;;;;;;4991914;28;20026;-82
2021/07/26 06:44:52;;;;;;;12.98;8.23;;;;;;;;;;4997183;28;20022;-79
2021/07/26 06:47:18;;;;;;;16.45;8.88;;;;;;;;;;5014506;28;20044;-79
2021/07/26 06:49:44;;;;;;;12.45;8.82;;;;;;;;;;5014294;28;20050;-80
2021/07/26 06:52:11;;;;;;;13.30;8.90;;;;;;;;;;5009554;28;20395;-82
2021/07/26 06:54:37;;;;;;;12.70;8.82;;;;;;;;;;5006205;28;20026;-75
2021/07/26 06:57:04;;;;;;;15.80;9.23;;;;;;;;;;5008606;28;20049;-82
2021/07/26 06:59:30;;;;;;;14.80;9.10;;;;;;;;;;4993183;28;20042;-77
2021/07/26 07:01:56;;;;;;;12.68;8.00;;;;;;;;;;5007322;28;20419;-76
2021/07/26 07:04:22;;;;;;;12.40;9.02;;;;;;;;;;5009085;28;20029;-80
2021/07/26 07:06:48;;;;;;;12.40;8.23;;;;;;;;;;4993339;28;20022;-76
2021/07/26 07:09:17;;;;;;;14.38;8.70;;;;;;;;;;5013560;28;20046;-78
2021/07/26 07:11:43;;;;;;;12.48;8.38;;;;;;;;;;5011460;28;20069;-77
2021/07/26 07:14:09;;;;;;;10.55;9.00;;;;;;;;;;5012567;28;20030;-75
2021/07/26 07:16:36;;;;;;;11.73;9.07;;;;;;;;;;5006830;28;20116;-75
2021/07/26 07:19:03;;;;;;;13.20;8.70;;;;;;;;;;5007419;28;20026;-74
2021/07/26 07:21:30;;;;;;;14.35;9.13;;;;;;;;;;5012735;28;20048;-80
2021/07/26 07:23:57;;;;;;;20.95;9.45;;;;;;;;;;5008910;28;20042;-69
2021/07/26 07:26:25;;;;;;;12.80;9.25;;;;;;;;;;5010204;28;20559;-78
2021/07/26 07:28:52;;;;;;;12.02;8.73;;;;;;;;;;5005934;28;20030;-81
2021/07/26 07:31:23;;;;;;;16.95;9.23;;;;;;;;;;4990838;28;20033;-73
2021/07/26 07:33:50;;;;;;;13.40;8.77;;;;;;;;;;5010914;28;20076;-73
2021/07/26 07:36:16;;;;;;;15.93;9.27;;;;;;;;;;5013338;28;20080;-77
2021/07/26 07:38:42;;;;;;;15.25;9.05;;;;;;;;;;5008691;28;20053;-77
2021/07/26 07:41:08;;;;;;;12.82;9.13;;;;;;;;;;5009421;28;20069;-77
2021/07/26 07:43:36;;;;;;;18.73;10.13;;;;;;;;;;5012215;28;20769;-77
2021/07/26 07:46:03;;;;;;;11.82;9.30;;;;;;;;;;5012708;28;20408;-79
2021/07/26 07:48:30;;;;;;;14.43;9.18;;;;;;;;;;5005494;28;20018;-79
2021/07/26 07:50:56;;;;;;;12.02;9.60;;;;;;;;;;4992023;28;20033;-70
2021/07/26 07:53:23;;;;;;;17.77;9.95;;;;;;;;;;5006012;28;20464;-79
2021/07/26 07:55:51;;;;;;;14.82;9.45;;;;;;;;;;5003183;28;20038;-78
2021/07/26 07:58:17;;;;;;;16.42;9.02;;;;;;;;;;4992395;28;20022;-72
2021/07/26 08:01:00;;;;;;;12.32;8.55;;;;;;;;;;5001459;28;20049;-80
2021/07/26 08:03:27;;;;;;;26.73;11.35;;;;;;;;;;4985956;28;20031;-76
2021/07/26 08:05:53;;;;;;;21.92;10.35;;;;;;;;;;5010722;28;20033;-76
2021/07/26 08:08:19;;;;;;;12.50;8.70;;;;;;;;;;5005638;28;20026;-69
2021/07/26 08:10:46;;;;;;;17.10;9.27;;;;;;;;;;5007717;28;20061;-80
2021/07/26 08:13:12;;;;;;;14.63;8.27;;;;;;;;;;4993608;28;20037;-73
2021/07/26 08:15:38;;;;;;;14.15;8.20;;;;;;;;;;5008126;28;20053;-78
2021/07/26 08:18:06;;;;;;;12.60;7.95;;;;;;;;;;5002023;28;20392;-76
2021/07/26 08:20:32;;;;;;;11.63;7.88;;;;;;;;;;5002423;28;20084;-77
2021/07/26 08:22:58;;;;;;;13.68;8.38;;;;;;;;;;5007671;28;20046;-76
2021/07/26 08:25:24;;;;;;;17.75;8.85;;;;;;;;;;5007749;28;20029;-84
2021/07/26 08:28:14;;;;;;;16.98;8.88;;;;;;;;;;5009200;28;20044;-67
2021/07/26 08:30:40;;;;;;;19.40;9.82;;;;;;;;;;4915588;29;20174;-76
2021/07/26 08:33:07;;;;;;;17.35;9.45;;;;;;;;;;4919334;29;20032;-70
2021/07/26 08:35:34;;;;;;;19.58;9.00;;;;;;;;;;4908196;29;20047;-76
2021/07/26 08:38:03;;;;;;;24.60;9.02;;;;;;;;;;4922677;29;20047;-79
2021/07/26 08:40:37;;;;;;;19.70;9.07;;;;;;;;;;4935000;29;20520;-72
2021/07/26 08:43:28;;;;;;;14.77;9.30;;;;;;;;;;4932773;29;20031;-68
2021/07/26 08:45:52;;;;;;;11.90;8.27;;;;;;;;;;4931420;29;20114;-81
2021/07/26 08:48:18;;;;;;;22.40;9.50;;;;;;;;;;4916132;29;20051;-78
2021/07/26 08:50:45;;;;;;;12.93;8.40;;;;;;;;;;4933343;29;20042;-76
2021/07/26 08:53:11;;;;;;;17.13;8.93;;;;;;;;;;4932533;29;20114;-77
2021/07/26 08:55:37;;;;;;;15.57;8.55;;;;;;;;;;4933566;29;20051;-75
2021/07/26 08:58:04;;;;;;;12.32;9.05;;;;;;;;;;4932327;29;20099;-73
2021/07/26 09:00:30;;;;;;;13.60;8.30;;;;;;;;;;4931449;29;20054;-78
2021/07/26 09:02:56;;;;;;;14.07;8.15;;;;;;;;;;4933311;29;20032;-78
2021/07/26 09:05:23;;;;;;;14.63;8.90;;;;;;;;;;4931769;29;20028;-79
2021/07/26 09:07:50;;;;;;;11.73;8.75;;;;;;;;;;4970015;28;20124;-80
2021/07/26 09:10:18;;;;;;;14.57;8.63;;;;;;;;;;5009728;28;20447;-73
2021/07/26 09:12:45;;;;;;;16.98;8.13;;;;;;;;;;5009943;28;20030;-74
2021/07/26 09:15:31;;;;;;;12.52;7.85;;;;;;;;;;5006042;28;20026;-77
2021/07/26 09:17:59;;;;;;;12.90;8.40;;;;;;;;;;5002747;28;20064;-72
2021/07/26 09:20:29;;;;;;;12.13;8.38;;;;;;;;;;5005116;28;20077;-77
2021/07/26 09:22:57;;;;;;;13.32;8.45;;;;;;;;;;5010048;28;20088;-74
2021/07/26 09:25:27;;;;;;;15.98;8.80;;;;;;;;;;5008908;28;20122;-73
2021/07/26 09:28:10;;;;;;;15.77;9.68;;;;;;;;;;5005462;28;20500;-74
2021/07/26 09:30:44;;;;;;;18.83;9.52;;;;;;;;;;5022730;28;20042;-75
2021/07/26 09:33:16;;;;;;;12.73;8.05;;;;;;;;;;5011700;28;20036;-79
2021/07/26 09:35:43;;;;;;;14.57;9.23;;;;;;;;;;5010128;28;20046;-80
2021/07/26 09:38:09;;;;;;;32.20;18.83;;;;;;;;;;5006545;28;20064;-77
2021/07/26 09:40:36;;;;;;;22.63;13.10;;;;;;;;;;5005172;28;20144;-78
2021/07/26 09:43:19;;;;;;;13.38;8.80;;;;;;;;;;5005779;28;20022;-74
2021/07/26 09:45:47;;;;;;;12.43;9.02;;;;;;;;;;5003693;28;20025;-72
2021/07/26 09:48:15;;;;;;;16.48;8.63;;;;;;;;;;4998986;28;20054;-74
2021/07/26 09:50:48;;;;;;;18.73;9.55;;;;;;;;;;5001840;28;20032;-71
2021/07/26 09:53:15;;;;;;;14.32;8.65;;;;;;;;;;4998655;28;20018;-74
2021/07/26 09:55:42;;;;;;;13.32;8.60;;;;;;;;;;5010663;28;20064;-71
2021/07/26 09:58:13;;;;;;;16.40;8.57;;;;;;;;;;4997645;28;20109;-72
2021/07/26 10:00:40;;;;;;;12.93;8.40;;;;;;;;;;5007207;28;20113;-80
2021/07/26 10:03:09;;;;;;;16.48;8.75;;;;;;;;;;5004658;28;20029;-71
2021/07/26 10:05:36;;;;;;;16.40;8.77;;;;;;;;;;5003757;28;20022;-74
2021/07/26 10:08:03;;;;;;;16.48;9.13;;;;;;;;;;5000387;28;20109;-72
2021/07/26 10:10:43;;;;;;;15.32;8.68;;;;;;;;;;4997089;28;20029;-77
2021/07/26 10:13:09;;;;;;;11.80;8.35;;;;;;;;;;5002548;28;20053;-75
2021/07/26 10:15:36;;;;;;;15.32;9.15;;;;;;;;;;5010311;28;20065;-75
2021/07/26 10:18:06;;;;;;;15.75;8.55;;;;;;;;;;5008905;28;20048;-72
2021/07/26 10:20:37;;;;;;;15.32;8.68;;;;;;;;;;5001627;28;20169;-83
2021/07/26 10:23:14;;;;;;;14.20;8.88;;;;;;;;;;5005711;28;20053;-81
2021/07/26 10:25:40;;;;;;;14.95;9.38;;;;;;;;;;5009139;28;20476;-83
2021/07/26 10:28:16;;;;;;;16.13;9.32;;;;;;;;;;5006676;28;20030;-75
2021/07/26 10:30:42;;;;;;;17.15;8.90;;;;;;;;;;5009916;28;20069;-75
2021/07/26 10:33:08;;;;;;;17.30;8.82;;;;;;;;;;5008126;28;20049;-73
2021/07/26 10:35:47;;;;;;;17.05;8.68;;;;;;;;;;5008415;28;20061;-73
2021/07/26 10:38:13;;;;;;;18.17;8.80;;;;;;;;;;5007460;28;20049;-75
2021/07/26 10:40:40;;;;;;;17.33;8.95;;;;;;;;;;5010245;28;20046;-70
2021/07/26 10:43:06;;;;;;;19.38;8.55;;;;;;;;;;5009046;28;20037;-74
2021/07/26 10:45:32;;;;;;;16.92;8.88;;;;;;;;;;5003788;28;20034;-75
2021/07/26 10:48:17;;;;;;;18.85;9.25;;;;;;;;;;5007573;28;20472;-71
2021/07/26 10:50:47;;;;;;;18.60;8.85;;;;;;;;;;4997988;28;20041;-71
2021/07/26 10:53:31;;;;;;;15.65;8.35;;;;;;;;;;5000356;28;20018;-78
2021/07/26 10:56:07;;;;;;;15.65;9.20;;;;;;;;;;5003880;28;20484;-71
2021/07/26 10:58:39;;;;;;;14.90;8.68;;;;;;;;;;5007116;28;20083;-71
2021/07/26 11:01:23;;;;;;;14.47;8.03;;;;;;;;;;5006550;28;20034;-78
2021/07/26 11:03:50;;;;;;;19.48;8.43;;;;;;;;;;5001106;28;20251;-73
2021/07/26 11:06:37;;;;;;;20.80;8.35;;;;;;;;;;5007879;28;20140;-77
2021/07/26 11:09:22;;;;;;;15.88;8.10;;;;;;;;;;4995351;28;20037;-78
2021/07/26 11:11:49;;;;;;;16.88;8.57;;;;;;;;;;5006361;28;20026;-76
2021/07/26 11:14:15;;;;;;;15.75;8.23;;;;;;;;;;5008040;28;20026;-76
2021/07/26 11:16:51;;;;;;;16.95;7.57;;;;;;;;;;5007414;28;20045;-79
2021/07/26 11:19:33;;;;;;;17.88;8.00;;;;;;;;;;5008338;28;20030;-73
2021/07/26 11:21:59;;;;;;;15.18;7.25;;;;;;;;;;5010185;28;20036;-83
2021/07/26 11:24:41;;;;;;;14.18;7.47;;;;;;;;;;5010538;28;20025;-75
2021/07/26 11:27:08;;;;;;;21.00;8.40;;;;;;;;;;5001256;28;20044;-72
2021/07/26 11:29:34;;;;;;;15.43;7.93;;;;;;;;;;5009084;28;20033;-76
2021/07/26 11:32:00;;;;;;;18.05;8.18;;;;;;;;;;5010984;28;20113;-78
2021/07/26 11:34:31;;;;;;;22.88;8.65;;;;;;;;;;5010114;28;20033;-79
2021/07/26 11:37:17;;;;;;;18.58;8.43;;;;;;;;;;5010965;28;20034;-79
2021/07/26 11:39:44;;;;;;;16.17;7.85;;;;;;;;;;5006404;28;20034;-77
2021/07/26 11:42:10;;;;;;;15.57;7.85;;;;;;;;;;5008809;28;20097;-76
2021/07/26 12:13:47;;;;;;;18.20;9.00;;;;;;;;;;5062475;23;20203;-79
2021/07/26 12:16:18;;;;;;;24.65;11.23;;;;;;;;;;4990492;28;20101;-70
2021/07/26 12:18:45;;;;;;;18.30;8.95;;;;;;;;;;4994038;28;20022;-72
2021/07/26 12:21:11;;;;;;;20.83;9.93;;;;;;;;;;4991272;28;20038;-73
2021/07/26 12:23:37;;;;;;;22.65;9.55;;;;;;;;;;4973537;28;20027;-70
2021/07/26 12:26:10;;;;;;;22.85;9.45;;;;;;;;;;4993789;28;20026;-73
2021/07/26 12:28:53;;;;;;;26.85;8.93;;;;;;;;;;4983086;28;20567;-73
2021/07/26 12:31:30;;;;;;;19.35;7.65;;;;;;;;;;4994205;28;20040;-70
2021/07/26 12:34:21;;;;;;;18.08;8.02;;;;;;;;;;4996886;28;20052;-73
2021/07/26 12:36:47;;;;;;;19.13;7.40;;;;;;;;;;4986748;28;20045;-76
2021/07/26 12:39:17;;;;;;;15.40;7.32;;;;;;;;;;4991858;28;20026;-71
2021/07/26 12:41:50;;;;;;;20.55;7.72;;;;;;;;;;4986334;28;20058;-72
2021/07/26 12:44:21;;;;;;;19.83;7.32;;;;;;;;;;4988349;28;20412;-71
2021/07/26 12:46:48;;;;;;;14.65;7.32;;;;;;;;;;4983513;28;20031;-75
2021/07/26 12:49:19;;;;;;;16.58;7.22;;;;;;;;;;4986688;28;20399;-70
2021/07/26 12:51:45;;;;;;;17.83;7.43;;;;;;;;;;4989138;28;20396;-70
2021/07/26 12:54:13;;;;;;;24.75;7.40;;;;;;;;;;4990056;28;20089;-71
2021/07/26 12:56:39;;;;;;;12.13;6.45;;;;;;;;;;4985170;28;20029;-74
2021/07/26 12:59:05;;;;;;;18.30;7.60;;;;;;;;;;4993090;28;20049;-77
2021/07/26 13:01:31;;;;;;;16.70;7.25;;;;;;;;;;4992220;28;20113;-70
2021/07/26 13:04:11;;;;;;;17.83;8.20;;;;;;;;;;4983145;28;20038;-69
2021/07/26 13:06:38;;;;;;;18.30;6.35;;;;;;;;;;4981272;28;20406;-70
2021/07/26 13:09:05;;;;;;;12.63;6.72;;;;;;;;;;4988064;28;20049;-71
2021/07/26 13:11:31;;;;;;;18.48;6.93;;;;;;;;;;4990451;28;20089;-72
2021/07/26 13:13:57;;;;;;;17.08;6.80;;;;;;;;;;4979683;28;20134;-78
2021/07/26 13:16:23;;;;;;;17.48;7.00;;;;;;;;;;4974709;28;20019;-69
2021/07/26 13:18:49;;;;;;;63.33;8.07;;;;;;;;;;4973472;28;20074;-70
2021/07/26 13:21:16;;;;;;;19.60;7.72;;;;;;;;;;4973129;28;20034;-71
2021/07/26 13:23:42;;;;;;;13.23;6.45;;;;;;;;;;4973813;28;20090;-68
2021/07/26 13:26:09;;;;;;;18.05;8.13;;;;;;;;;;4973000;28;20031;-68
2021/07/26 13:28:37;;;;;;;21.27;6.90;;;;;;;;;;4972417;28;20046;-71
2021/07/26 13:31:03;;;;;;;18.33;7.40;;;;;;;;;;4973177;28;20155;-71
2021/07/26 13:33:29;;;;;;;19.25;7.82;;;;;;;;;;4972772;28;20027;-70
2021/07/26 13:35:55;;;;;;;18.63;7.60;;;;;;;;;;4974485;28;20082;-70
2021/07/26 13:38:21;;;;;;;18.95;7.13;;;;;;;;;;4973364;28;20103;-68
2021/07/26 13:40:47;;;;;;;15.70;6.90;;;;;;;;;;4974988;28;20058;-69
2021/07/26 13:43:13;;;;;;;17.55;6.95;;;;;;;;;;4977241;28;20034;-69
2021/07/26 13:45:40;;;;;;;16.17;7.10;;;;;;;;;;4973028;28;20029;-69
2021/07/26 13:48:06;;;;;;;17.95;6.85;;;;;;;;;;4975482;28;20098;-68
2021/07/26 13:53:39;;;;;;;21.25;8.40;;;;;;;;;;4997443;23;20093;-68
2021/07/26 13:56:05;;;;;;;17.33;8.07;;;;;;;;;;4960873;28;20429;-71
2021/07/26 13:58:31;;;;;;;20.42;7.40;;;;;;;;;;4964685;28;20026;-71
2021/07/26 14:00:57;;;;;;;23.20;8.18;;;;;;;;;;4953164;29;20043;-77
2021/07/26 14:03:23;;;;;;;15.55;7.88;;;;;;;;;;4958937;28;20032;-68
2021/07/26 14:05:50;;;;;;;18.60;7.68;;;;;;;;;;4961243;28;20397;-68
2021/07/26 14:08:18;;;;;;;18.50;7.90;;;;;;;;;;4969088;28;20030;-75
2021/07/26 14:10:44;;;;;;;15.10;6.60;;;;;;;;;;4960806;28;20104;-68
2021/07/26 14:13:10;;;;;;;17.67;7.78;;;;;;;;;;4954252;28;20027;-71
2021/07/26 14:15:38;;;;;;;15.25;7.95;;;;;;;;;;4953705;28;20046;-67
2021/07/26 14:18:04;;;;;;;21.88;8.00;;;;;;;;;;4959921;28;20047;-68
2021/07/26 14:20:30;;;;;;;16.45;8.77;;;;;;;;;;4953389;28;20036;-78
2021/07/26 14:22:56;;;;;;;19.70;8.13;;;;;;;;;;4963591;28;20421;-69
2021/07/26 14:25:22;;;;;;;15.55;8.32;;;;;;;;;;4966814;28;20030;-70
2021/07/26 14:27:49;;;;;;;16.85;8.23;;;;;;;;;;4957136;28;20043;-75
2021/07/26 14:30:15;;;;;;;15.52;7.97;;;;;;;;;;4953475;29;20086;-74
2021/07/26 14:32:41;;;;;;;17.90;8.48;;;;;;;;;;4953845;28;20564;-68
2021/07/26 14:35:07;;;;;;;17.98;8.32;;;;;;;;;;4953755;29;20401;-72
2021/07/26 14:37:33;;;;;;;18.50;9.02;;;;;;;;;;4947706;29;20033;-72
2021/07/26 14:40:02;;;;;;;16.75;8.88;;;;;;;;;;4953232;29;20515;-69
2021/07/26 14:42:28;;;;;;;14.13;8.40;;;;;;;;;;4953657;29;20039;-70
2021/07/26 14:44:56;;;;;;;21.65;8.65;;;;;;;;;;4953568;29;20016;-71
2021/07/26 14:47:24;;;;;;;17.33;8.93;;;;;;;;;;4956106;28;20039;-71
2021/07/26 14:49:50;;;;;;;18.45;9.27;;;;;;;;;;4950317;29;20074;-71
2021/07/26 14:52:16;;;;;;;23.02;9.07;;;;;;;;;;4952739;28;20469;-70
2021/07/26 14:54:42;;;;;;;19.60;9.38;;;;;;;;;;4954111;28;20036;-68
2021/07/26 14:57:08;;;;;;;17.00;8.38;;;;;;;;;;4953286;28;20057;-71
2021/07/26 14:59:35;;;;;;;18.05;9.68;;;;;;;;;;4956753;28;20094;-70
2021/07/26 15:02:02;;;;;;;14.82;8.82;;;;;;;;;;4957504;28;20934;-71
2021/07/26 15:04:30;;;;;;;20.25;9.00;;;;;;;;;;4957348;28;20049;-70
2021/07/26 15:06:56;;;;;;;18.25;8.70;;;;;;;;;;4960763;28;20038;-71
2021/07/26 15:09:22;;;;;;;17.48;8.77;;;;;;;;;;4955878;29;20093;-70
2021/07/26 15:11:48;;;;;;;17.83;9.45;;;;;;;;;;4955755;29;20027;-71